<?xml version="1.0" encoding="utf-8"?>
<gpx xmlns:xsi="http://www.w3.org/2001/XMLSchema-instance" xmlns:xsd="http://www.w3.org/2001/XMLSchema" version="1.1" creator="Shapelink.com" xmlns="http://www.topografix.com/GPX/1/1" xmlns:gpxtpx="http://www.garmin.com/xmlschemas/TrackPointExtension/v1">
  <metadata>
    <name>Övrigt 1.91 km, 2020-10-24</name>
    <desc></desc>
    <author><name>Marian Moron</name></author> 
    <time>2020-10-24T20:39:34Z</time>
  </metadata>
  <trk>
    <name>Övrigt 1.91 km, 2020-10-24</name>
    <trkseg>
      <trkpt lat="51.229691176026" lon="4.457665578398">
        <ele>0</ele>
        <time>2020-10-24T20:39:34Z</time>
      </trkpt>
      <trkpt lat="51.229784885668" lon="4.457172052126">
        <ele>19.6</ele>
        <time>2020-10-24T20:40:02Z</time>
      </trkpt>
      <trkpt lat="51.229735348639" lon="4.456876338694">
        <ele>20.4</ele>
        <time>2020-10-24T20:40:16Z</time>
      </trkpt>
      <trkpt lat="51.229702156315" lon="4.456890336467">
        <ele>21</ele>
        <time>2020-10-24T20:40:23Z</time>
      </trkpt>
      <trkpt lat="51.229694361148" lon="4.456885642603">
        <ele>21.2</ele>
        <time>2020-10-24T20:40:26Z</time>
      </trkpt>
      <trkpt lat="51.229728307843" lon="4.45664533353">
        <ele>18.2</ele>
        <time>2020-10-24T20:40:59Z</time>
      </trkpt>
      <trkpt lat="51.230183109737" lon="4.456600825641">
        <ele>21.6</ele>
        <time>2020-10-24T20:41:44Z</time>
      </trkpt>
      <trkpt lat="51.230626596066" lon="4.45649026838">
        <ele>21.8</ele>
        <time>2020-10-24T20:42:08Z</time>
      </trkpt>
      <trkpt lat="51.230746541055" lon="4.456410891787">
        <ele>21</ele>
        <time>2020-10-24T20:42:18Z</time>
      </trkpt>
      <trkpt lat="51.23093052376" lon="4.456200506097">
        <ele>6.6</ele>
        <time>2020-10-24T20:44:11Z</time>
      </trkpt>
      <trkpt lat="51.230899426911" lon="4.456027503681">
        <ele>6.6</ele>
        <time>2020-10-24T20:44:30Z</time>
      </trkpt>
      <trkpt lat="51.230544788722" lon="4.455558368738">
        <ele>7</ele>
        <time>2020-10-24T20:45:02Z</time>
      </trkpt>
      <trkpt lat="51.230432135986" lon="4.455464072363">
        <ele>7.6</ele>
        <time>2020-10-24T20:45:11Z</time>
      </trkpt>
      <trkpt lat="51.23008646643" lon="4.455182524342">
        <ele>11.2</ele>
        <time>2020-10-24T20:46:00Z</time>
      </trkpt>
      <trkpt lat="51.230033576641" lon="4.455167772198">
        <ele>13</ele>
        <time>2020-10-24T20:46:05Z</time>
      </trkpt>
      <trkpt lat="51.229887396305" lon="4.455088563243">
        <ele>14.4</ele>
        <time>2020-10-24T20:46:19Z</time>
      </trkpt>
      <trkpt lat="51.229669550724" lon="4.455020166939">
        <ele>14</ele>
        <time>2020-10-24T20:46:36Z</time>
      </trkpt>
      <trkpt lat="51.229465619097" lon="4.454873735146">
        <ele>9.4</ele>
        <time>2020-10-24T20:47:07Z</time>
      </trkpt>
      <trkpt lat="51.229277445442" lon="4.454826964144">
        <ele>2</ele>
        <time>2020-10-24T20:47:29Z</time>
      </trkpt>
      <trkpt lat="51.229038561292" lon="4.454774996364">
        <ele>0</ele>
        <time>2020-10-24T20:48:09Z</time>
      </trkpt>
      <trkpt lat="51.228603037768" lon="4.454766027731">
        <ele>0.8</ele>
        <time>2020-10-24T20:48:52Z</time>
      </trkpt>
      <trkpt lat="51.228340265203" lon="4.454750688854">
        <ele>0</ele>
        <time>2020-10-24T20:49:48Z</time>
      </trkpt>
      <trkpt lat="51.227905579869" lon="4.454810200344">
        <ele>0</ele>
        <time>2020-10-24T20:50:35Z</time>
      </trkpt>
      <trkpt lat="51.227649429005" lon="4.454786395748">
        <ele>0</ele>
        <time>2020-10-24T20:51:10Z</time>
      </trkpt>
      <trkpt lat="51.227571477335" lon="4.454748425741">
        <ele>0</ele>
        <time>2020-10-24T20:51:20Z</time>
      </trkpt>
      <trkpt lat="51.227120782572" lon="4.45459763536">
        <ele>4.8</ele>
        <time>2020-10-24T20:51:59Z</time>
      </trkpt>
      <trkpt lat="51.226674781673" lon="4.454640802145">
        <ele>1.8</ele>
        <time>2020-10-24T20:52:37Z</time>
      </trkpt>
      <trkpt lat="51.226548298802" lon="4.454615824083">
        <ele>5.4</ele>
        <time>2020-10-24T20:52:50Z</time>
      </trkpt>
      <trkpt lat="51.226116295676" lon="4.454633845168">
        <ele>10</ele>
        <time>2020-10-24T20:53:18Z</time>
      </trkpt>
      <trkpt lat="51.225749839008" lon="4.454688243699">
        <ele>2.6</ele>
        <time>2020-10-24T20:53:52Z</time>
      </trkpt>
      <trkpt lat="51.225384639625" lon="4.45474850956">
        <ele>0</ele>
        <time>2020-10-24T20:54:38Z</time>
      </trkpt>
      <trkpt lat="51.225048190159" lon="4.454608112735">
        <ele>0</ele>
        <time>2020-10-24T20:55:19Z</time>
      </trkpt>
      <trkpt lat="51.224970406127" lon="4.454827131782">
        <ele>0</ele>
        <time>2020-10-24T20:55:34Z</time>
      </trkpt>
      <trkpt lat="51.224939896011" lon="4.455238431615">
        <ele>0</ele>
        <time>2020-10-24T20:55:57Z</time>
      </trkpt>
      <trkpt lat="51.224932939034" lon="4.45531596419">
        <ele>0</ele>
        <time>2020-10-24T20:56:05Z</time>
      </trkpt>
      <trkpt lat="51.224887760593" lon="4.455518387075">
        <ele>0</ele>
        <time>2020-10-24T20:56:35Z</time>
      </trkpt>
      <trkpt lat="51.224843420342" lon="4.455655934054">
        <ele>2.2</ele>
        <time>2020-10-24T20:56:55Z</time>
      </trkpt>
      <trkpt lat="51.224791117286" lon="4.455914096574">
        <ele>2.8</ele>
        <time>2020-10-24T20:57:13Z</time>
      </trkpt>
      <trkpt lat="51.224805282697" lon="4.456076453977">
        <ele>0</ele>
        <time>2020-10-24T20:57:34Z</time>
      </trkpt>
      <trkpt lat="51.224687852278" lon="4.456566124575">
        <ele>0</ele>
        <time>2020-10-24T20:58:06Z</time>
      </trkpt>
      <trkpt lat="51.224660611103" lon="4.456783970156">
        <ele>0</ele>
        <time>2020-10-24T20:58:23Z</time>
      </trkpt>
      <trkpt lat="51.224829590207" lon="4.457159646914">
        <ele>4.6</ele>
        <time>2020-10-24T20:58:50Z</time>
      </trkpt>
      <trkpt lat="51.22508247213" lon="4.457524259564">
        <ele>8.8</ele>
        <time>2020-10-24T20:59:32Z</time>
      </trkpt>
      <trkpt lat="51.225423447822" lon="4.45793782251">
        <ele>0.4</ele>
        <time>2020-10-24T21:00:19Z</time>
      </trkpt>
      <trkpt lat="51.225549595417" lon="4.458039159681">
        <ele>0.2</ele>
        <time>2020-10-24T21:00:55Z</time>
      </trkpt>
      <trkpt lat="51.225620506291" lon="4.458208976975">
        <ele>3</ele>
        <time>2020-10-24T21:01:11Z</time>
      </trkpt>
      <trkpt lat="51.225962990725" lon="4.458524304053">
        <ele>13.6</ele>
        <time>2020-10-24T21:02:18Z</time>
      </trkpt>
      <trkpt lat="51.226094586555" lon="4.458409891118">
        <ele>19</ele>
        <time>2020-10-24T21:02:48Z</time>
      </trkpt>
      <trkpt lat="51.226440842844" lon="4.45825968747">
        <ele>28.8</ele>
        <time>2020-10-24T21:04:13Z</time>
      </trkpt>
      <trkpt lat="51.226588029008" lon="4.458183495999">
        <ele>29</ele>
        <time>2020-10-24T21:04:30Z</time>
      </trkpt>
      <trkpt lat="51.226954569495" lon="4.457842687945">
        <ele>10.4</ele>
        <time>2020-10-24T21:05:10Z</time>
      </trkpt>
      <trkpt lat="51.227078118701" lon="4.457828103439">
        <ele>15.8</ele>
        <time>2020-10-24T21:05:27Z</time>
      </trkpt>
      <trkpt lat="51.227438540401" lon="4.45774084786">
        <ele>33.2</ele>
        <time>2020-10-24T21:06:07Z</time>
      </trkpt>
      <trkpt lat="51.227461506807" lon="4.457736237815">
        <ele>34.4</ele>
        <time>2020-10-24T21:06:09Z</time>
      </trkpt>
      <trkpt lat="51.227847493302" lon="4.457416887425">
        <ele>27.6</ele>
        <time>2020-10-24T21:07:05Z</time>
      </trkpt>
      <trkpt lat="51.228162485104" lon="4.457247070131">
        <ele>26.6</ele>
        <time>2020-10-24T21:08:06Z</time>
      </trkpt>
      <trkpt lat="51.22849222905" lon="4.456998462977">
        <ele>18</ele>
        <time>2020-10-24T21:08:57Z</time>
      </trkpt>
      <trkpt lat="51.228557188775" lon="4.456990248715">
        <ele>20</ele>
        <time>2020-10-24T21:09:03Z</time>
      </trkpt>
      <trkpt lat="51.229014169963" lon="4.45694875831">
        <ele>33.8</ele>
        <time>2020-10-24T21:09:43Z</time>
      </trkpt>
      <trkpt lat="51.229286665532" lon="4.456907854638">
        <ele>38.4</ele>
        <time>2020-10-24T21:10:13Z</time>
      </trkpt>
      <trkpt lat="51.229690086379" lon="4.456716495861">
        <ele>32</ele>
        <time>2020-10-24T21:10:53Z</time>
      </trkpt>
      <trkpt lat="51.229669383086" lon="4.456801488327">
        <ele>28.4</ele>
        <time>2020-10-24T21:11:00Z</time>
      </trkpt>
      <trkpt lat="51.229610709786" lon="4.456803583802">
        <ele>21.4</ele>
        <time>2020-10-24T21:11:06Z</time>
      </trkpt>
      <trkpt lat="51.229701653401" lon="4.456880362006">
        <ele>7.2</ele>
        <time>2020-10-24T21:11:16Z</time>
      </trkpt>
      <trkpt lat="51.229758566502" lon="4.456912297045">
        <ele>4.4</ele>
        <time>2020-10-24T21:11:21Z</time>
      </trkpt>
      <trkpt lat="51.229867279745" lon="4.457582346131">
        <ele>0</ele>
        <time>2020-10-24T21:12:43Z</time>
      </trkpt>
      <trkpt lat="51.229845486805" lon="4.457865235256">
        <ele>1.8</ele>
        <time>2020-10-24T21:13:07Z</time>
      </trkpt>
      <trkpt lat="51.229696791899" lon="4.457937235777">
        <ele>3</ele>
        <time>2020-10-24T21:13:59Z</time>
      </trkpt>
    </trkseg>
  </trk>
</gpx>